»·PEaware :: SWA1726 KSFO-KSAN

SWA1726 :: KSFO-KSAN

FLIGHT INFORMATION

Flight Status: Arrived
Operator:
Southwest Airlines
More flights by this operator :: More flights under this callsign
Pilot: Cody B. (17747)
Aircraft: BOEING 737-800
(B738)
More flights by this aircraft type
Origin: KSFO San Francisco Intl
United States
Destination: KSAN San Diego Intl-Lindbergh
United States
More flights between these airports :: More routes between these airports
Route: +OFFSH1 MCKEY LAX COMIX1
File this flight plan on PilotEdge
Remarks: PBN / A1B1C1D1S1S2 DOF / 181003 REG / N8301J EET / KZLA0028 CODE / AB5ADE OPR / SWA PER / C RMK / TCAS SIMBRIEF
Altitude:
(Current/Filed)
37,000ft
Speed:
(Current/Filed)
458kts
Departed: 03-Oct-18 01:38 PM
Arrived: 03-Oct-18 03:03 PM
Distance/Time
Traveled:
388nm/1:25
Distance/Time
To Go:
Arrived

Flight Plot

Page will automatically refresh every two minutes.

Flight plan parsing failed; only flown route is shown


Map Options




Map Legend


Flown Route
Filed Route
Departure Airport
Arrival Airport
Navaid (VOR, NDB)
Fix

Horizontal Profiles

Position Reports

Time Latitude Longitude Heading Altitude Ground
Speed
03-Oct-18 13:09 37.612822 -122.383166 299 21ft 0kts
03-Oct-18 13:10 37.612822 -122.383166 299 21ft 0kts
03-Oct-18 13:11 37.612822 -122.383166 299 21ft 0kts
03-Oct-18 13:12 37.612822 -122.383166 299 21ft 0kts
03-Oct-18 13:13 37.612822 -122.383166 299 21ft 0kts
03-Oct-18 13:14 37.612822 -122.383166 299 21ft 0kts
03-Oct-18 13:15 37.612822 -122.383166 299 21ft 0kts
03-Oct-18 13:16 37.612822 -122.383166 299 21ft 0kts
03-Oct-18 13:17 37.612822 -122.383166 299 21ft 0kts
03-Oct-18 13:18 37.612822 -122.383166 299 21ft 0kts
03-Oct-18 13:19 37.612822 -122.383166 299 21ft 0kts
03-Oct-18 13:20 37.612822 -122.383166 299 21ft 0kts
03-Oct-18 13:21 37.612822 -122.383166 299 21ft 0kts
03-Oct-18 13:22 37.612822 -122.383166 299 21ft 0kts
03-Oct-18 13:23 37.612822 -122.383166 299 21ft 0kts
03-Oct-18 13:24 37.612822 -122.383166 299 21ft 0kts
03-Oct-18 13:25 37.612822 -122.383166 299 21ft 0kts
03-Oct-18 13:26 37.612825 -122.383164 299 21ft 0kts
03-Oct-18 13:27 37.612825 -122.383164 299 21ft 0kts
03-Oct-18 13:28 37.612825 -122.383164 299 21ft 0kts
03-Oct-18 13:29 37.612825 -122.383164 299 21ft 0kts
03-Oct-18 13:30 37.612728 -122.382774 272 21ft 2kts
03-Oct-18 13:31 37.612933 -122.382115 222 21ft 2kts
03-Oct-18 13:32 37.613112 -122.381964 206 21ft 0kts
03-Oct-18 13:33 37.613112 -122.381964 206 21ft 0kts
03-Oct-18 13:34 37.613112 -122.381964 206 21ft 0kts
03-Oct-18 13:35 37.612765 -122.382183 207 21ft 6kts
03-Oct-18 13:36 37.610050 -122.384081 216 21ft 14kts
03-Oct-18 13:37 37.608485 -122.383905 117 21ft 0kts
03-Oct-18 13:38 37.608475 -122.383881 117 21ft 0kts
03-Oct-18 13:39 37.608213 -122.383080 90 21ft 8kts
03-Oct-18 13:40 37.618837 -122.375695 27 21ft 133kts
03-Oct-18 13:41 37.659939 -122.367114 6 1581ft 184kts
03-Oct-18 13:42 37.722291 -122.364063 339 4044ft 261kts
03-Oct-18 13:43 37.728366 -122.440314 231 7297ft 290kts
03-Oct-18 13:44 37.679443 -122.515315 227 10658ft 302kts
03-Oct-18 13:45 37.623769 -122.599462 226 13494ft 327kts
03-Oct-18 13:46 37.561759 -122.681520 206 16145ft 338kts
03-Oct-18 13:47 37.473188 -122.717650 174 18601ft 345kts
03-Oct-18 13:48 37.382375 -122.683457 163 20023ft 351kts
03-Oct-18 13:49 37.286264 -122.656944 164 21630ft 363kts
03-Oct-18 13:50 37.186549 -122.630663 164 23313ft 376kts
03-Oct-18 13:51 37.083127 -122.603510 165 25000ft 386kts
03-Oct-18 13:52 36.978181 -122.575992 167 26684ft 389kts
03-Oct-18 13:53 36.874339 -122.548949 167 28332ft 389kts
03-Oct-18 13:54 36.769309 -122.521695 167 30007ft 386kts
03-Oct-18 13:55 36.665301 -122.494755 167 31673ft 380kts
03-Oct-18 13:56 36.563468 -122.468460 167 33274ft 372kts
03-Oct-18 13:57 36.463765 -122.442022 161 34729ft 363kts
03-Oct-18 13:58 36.382899 -122.373790 131 36214ft 351kts
03-Oct-18 13:59 36.322034 -122.285536 130 37016ft 356kts
03-Oct-18 14:00 36.255357 -122.188404 130 37010ft 385kts
03-Oct-18 14:01 36.183699 -122.084333 130 37006ft 410kts
03-Oct-18 14:02 36.107857 -121.974528 130 37004ft 433kts
03-Oct-18 14:03 36.028366 -121.859815 130 37005ft 446kts
03-Oct-18 14:04 35.947604 -121.743663 130 37002ft 446kts
03-Oct-18 14:05 35.868802 -121.630755 130 37000ft 446kts
03-Oct-18 14:06 35.788475 -121.515990 130 37003ft 445kts
03-Oct-18 14:07 35.708057 -121.401680 130 37000ft 445kts
03-Oct-18 14:08 35.631156 -121.292366 129 36976ft 447kts
03-Oct-18 14:09 35.550069 -121.177658 128 36983ft 451kts
03-Oct-18 14:10 35.474531 -121.069257 125 36980ft 424kts
03-Oct-18 14:11 35.409198 -120.952362 128 36974ft 430kts
03-Oct-18 14:12 35.341450 -120.832718 128 36980ft 438kts
03-Oct-18 14:13 35.273145 -120.712524 128 36977ft 438kts
03-Oct-18 14:14 35.204890 -120.592865 128 36979ft 438kts
03-Oct-18 14:15 35.136284 -120.472969 128 36978ft 438kts
03-Oct-18 14:16 35.067466 -120.353130 128 36982ft 438kts
03-Oct-18 14:17 35.002788 -120.240862 129 36977ft 438kts
03-Oct-18 14:18 34.933967 -120.121692 130 36987ft 438kts
03-Oct-18 14:19 34.875081 -120.020058 131 37007ft 441kts
03-Oct-18 14:20 34.805342 -119.900094 131 37012ft 440kts
03-Oct-18 14:21 34.735028 -119.779514 131 37012ft 441kts
03-Oct-18 14:22 34.664682 -119.659292 131 37014ft 441kts
03-Oct-18 14:23 34.605872 -119.559035 131 37013ft 440kts
03-Oct-18 14:24 34.523794 -119.419601 131 37012ft 440kts
03-Oct-18 14:25 34.466820 -119.323130 131 37005ft 440kts
03-Oct-18 14:26 34.393469 -119.199385 131 37005ft 440kts
03-Oct-18 14:27 34.334642 -119.100417 131 37000ft 440kts
03-Oct-18 14:28 34.253673 -118.964450 133 36994ft 434kts
03-Oct-18 14:29 34.197005 -118.869297 136 36807ft 411kts
03-Oct-18 14:30 34.133710 -118.763778 139 35052ft 390kts
03-Oct-18 14:31 34.070251 -118.658620 138 33768ft 397kts
03-Oct-18 14:32 34.007268 -118.554302 138 32771ft 402kts
03-Oct-18 14:33 33.943433 -118.448831 137 31359ft 403kts
03-Oct-18 14:34 33.876252 -118.357937 143 30092ft 398kts
03-Oct-18 14:35 33.809416 -118.271742 143 28900ft 401kts
03-Oct-18 14:36 33.738890 -118.179603 142 26905ft 360kts
03-Oct-18 14:37 33.670977 -118.090565 141 25117ft 360kts
03-Oct-18 14:38 33.604446 -118.003573 140 23426ft 360kts
03-Oct-18 14:39 33.539109 -117.919112 143 21816ft 355kts
03-Oct-18 14:40 33.471053 -117.840762 142 20255ft 350kts
03-Oct-18 14:41 33.403127 -117.765206 144 18736ft 340kts
03-Oct-18 14:42 33.334548 -117.692170 143 17236ft 333kts
03-Oct-18 14:43 33.265718 -117.618930 142 15791ft 340kts
03-Oct-18 14:44 33.199068 -117.548438 142 14423ft 325kts
03-Oct-18 14:45 33.131607 -117.477962 145 13085ft 323kts
03-Oct-18 14:46 33.058700 -117.417942 148 11767ft 316kts
03-Oct-18 14:47 32.990222 -117.360547 148 10574ft 289kts
03-Oct-18 14:48 32.929015 -117.309289 149 9536ft 268kts
03-Oct-18 14:49 32.871112 -117.261133 149 8447ft 261kts
03-Oct-18 14:50 32.816111 -117.211663 131 7400ft 261kts
03-Oct-18 14:51 32.793780 -117.133422 106 6045ft 251kts
03-Oct-18 14:52 32.776538 -117.056912 115 6003ft 239kts
03-Oct-18 14:53 32.748702 -116.986217 115 5999ft 238kts
03-Oct-18 14:54 32.733379 -116.913559 106 5992ft 219kts
03-Oct-18 14:55 32.701522 -116.864992 187 5455ft 202kts
03-Oct-18 14:56 32.648375 -116.873747 191 4990ft 189kts
03-Oct-18 14:57 32.596389 -116.882701 191 4991ft 189kts
03-Oct-18 14:58 32.565065 -116.914648 299 4995ft 190kts
03-Oct-18 14:59 32.615768 -116.927396 316 5040ft 192kts
03-Oct-18 15:00 32.652796 -116.970043 311 3903ft 181kts
03-Oct-18 15:01 32.686680 -117.012341 300 3747ft 179kts
03-Oct-18 15:02 32.704303 -117.065597 280 2914ft 169kts
03-Oct-18 15:03 32.715174 -117.114361 288 1730ft 141kts
03-Oct-18 15:04 32.725950 -117.158314 284 509ft 143kts
03-Oct-18 15:05 32.734486 -117.193668 275 25ft 15kts
03-Oct-18 15:06 32.733944 -117.194917 184 25ft 0kts
03-Oct-18 15:07 32.733285 -117.194285 173 25ft 7kts
03-Oct-18 15:08 32.732340 -117.195022 271 25ft 0kts
03-Oct-18 15:09 32.732554 -117.195471 308 25ft 0kts
03-Oct-18 15:10 32.732554 -117.195471 308 25ft 0kts
03-Oct-18 15:11 32.732554 -117.195471 308 25ft 0kts

Navigation Log

Ident Type
Flight plan parsing failed, navigation log unavailable